Time;durP1;ratioP1;P1;durP2;ratioP2;P2;SDS_P1;SDS_P2;PMS_P1;PMS_P2;Temp;Humidity;BMP_temperature;BMP_pressure;BME280_temperature;BME280_humidity;BME280_pressure;Samples;Min_cycle;Max_cycle;Signal;HPM_P1;HPM_P2
2022/04/18 00:01:28;;;;;;;5.07;3.50;;;;;;;;;;5033886;28;20179;-66
2022/04/18 00:03:55;;;;;;;3.50;3.17;;;;;;;;;;5032424;28;20200;-64
2022/04/18 00:06:21;;;;;;;4.70;3.17;;;;;;;;;;5032465;28;20185;-65
2022/04/18 00:08:47;;;;;;;4.03;3.30;;;;;;;;;;5034121;28;20175;-66
2022/04/18 00:11:13;;;;;;;4.67;3.60;;;;;;;;;;5033655;28;20236;-66
2022/04/18 00:13:39;;;;;;;4.33;3.23;;;;;;;;;;5033619;28;20711;-66
2022/04/18 00:16:05;;;;;;;5.03;3.40;;;;;;;;;;5033749;28;20596;-65
2022/04/18 00:18:31;;;;;;;5.10;3.77;;;;;;;;;;5032407;28;20215;-66
2022/04/18 00:20:57;;;;;;;4.17;3.30;;;;;;;;;;5033579;28;20175;-66
2022/04/18 00:23:23;;;;;;;4.83;3.30;;;;;;;;;;5033579;28;20199;-64
2022/04/18 00:25:49;;;;;;;5.27;3.43;;;;;;;;;;5032155;28;20273;-66
2022/04/18 00:28:15;;;;;;;4.90;3.43;;;;;;;;;;5033474;28;20266;-66
2022/04/18 00:30:42;;;;;;;4.57;3.60;;;;;;;;;;5033374;28;20174;-65
2022/04/18 00:33:09;;;;;;;5.80;3.77;;;;;;;;;;5033335;28;20171;-65
2022/04/18 00:35:35;;;;;;;5.90;3.50;;;;;;;;;;5033296;28;20223;-65
2022/04/18 00:38:01;;;;;;;5.03;3.40;;;;;;;;;;5033432;28;20175;-65
2022/04/18 00:40:27;;;;;;;6.00;3.77;;;;;;;;;;5033468;28;20526;-66
2022/04/18 00:43:01;;;;;;;4.97;3.93;;;;;;;;;;5033380;28;20182;-64
2022/04/18 00:45:27;;;;;;;5.30;3.63;;;;;;;;;;5031829;28;20202;-66
2022/04/18 00:47:53;;;;;;;5.90;4.07;;;;;;;;;;5033201;28;20179;-65
2022/04/18 00:50:19;;;;;;;8.97;4.37;;;;;;;;;;5033950;28;20179;-64
2022/04/18 00:52:46;;;;;;;6.63;4.50;;;;;;;;;;5037151;28;20178;-66
2022/04/18 00:55:12;;;;;;;4.97;3.67;;;;;;;;;;5035704;28;20260;-65
2022/04/18 00:57:39;;;;;;;4.30;3.23;;;;;;;;;;5037404;28;20640;-65
2022/04/18 01:00:05;;;;;;;4.30;3.47;;;;;;;;;;5037258;28;20187;-64
2022/04/18 01:02:32;;;;;;;4.20;3.23;;;;;;;;;;5037072;28;20249;-65
2022/04/18 01:04:58;;;;;;;4.90;3.10;;;;;;;;;;5035602;28;20210;-65
2022/04/18 01:07:24;;;;;;;4.57;3.13;;;;;;;;;;5036919;28;20178;-65
2022/04/18 01:09:50;;;;;;;4.00;3.10;;;;;;;;;;5037031;28;20218;-65
2022/04/18 01:12:15;;;;;;;4.33;2.87;;;;;;;;;;5037370;28;20317;-66
2022/04/18 01:14:48;;;;;;;7.87;2.90;;;;;;;;;;5037011;28;20715;-65
2022/04/18 01:17:15;;;;;;;4.80;3.10;;;;;;;;;;5038064;28;20647;-64
2022/04/18 01:19:41;;;;;;;3.57;2.83;;;;;;;;;;5037206;28;20547;-64
2022/04/18 01:22:09;;;;;;;4.73;3.10;;;;;;;;;;5035377;28;20175;-64
2022/04/18 01:30:05;;;;;;;3.33;2.73;;;;;;;;;;5036952;28;20178;-66
2022/04/18 01:32:32;;;;;;;4.70;3.07;;;;;;;;;;5036990;28;20237;-66
2022/04/18 01:34:57;;;;;;;3.17;2.80;;;;;;;;;;5036561;28;20214;-64
2022/04/18 01:37:24;;;;;;;4.97;3.20;;;;;;;;;;5036957;28;20179;-65
2022/04/18 01:39:50;;;;;;;5.60;3.23;;;;;;;;;;5035137;28;20190;-65
2022/04/18 01:42:16;;;;;;;4.90;3.40;;;;;;;;;;5036223;28;20175;-65
2022/04/18 01:44:42;;;;;;;3.07;2.60;;;;;;;;;;5036145;28;20222;-61
2022/04/18 01:47:08;;;;;;;5.43;3.00;;;;;;;;;;5036289;28;20194;-61
2022/04/18 01:49:34;;;;;;;4.50;3.10;;;;;;;;;;5035044;28;20190;-62
2022/04/18 01:52:00;;;;;;;5.23;3.17;;;;;;;;;;5036165;28;20546;-64
2022/04/18 01:54:26;;;;;;;4.03;2.90;;;;;;;;;;5036061;28;20215;-65
2022/04/18 01:56:52;;;;;;;3.73;2.60;;;;;;;;;;5034953;28;20171;-64
2022/04/18 01:59:18;;;;;;;3.57;2.77;;;;;;;;;;5034757;28;20179;-65
2022/04/18 02:01:44;;;;;;;3.43;2.87;;;;;;;;;;5034526;28;20639;-66
2022/04/18 02:04:10;;;;;;;5.07;3.00;;;;;;;;;;5035918;28;20198;-66
2022/04/18 02:06:36;;;;;;;3.87;2.83;;;;;;;;;;5035787;28;20235;-66
2022/04/18 02:09:02;;;;;;;5.23;2.83;;;;;;;;;;5034598;28;20179;-64
2022/04/18 02:11:28;;;;;;;3.67;2.77;;;;;;;;;;5036325;28;20510;-67
2022/04/18 02:13:54;;;;;;;3.23;2.93;;;;;;;;;;5035856;28;20213;-65
2022/04/18 02:16:20;;;;;;;4.80;2.90;;;;;;;;;;5035866;28;20202;-66
2022/04/18 02:18:47;;;;;;;5.40;3.37;;;;;;;;;;5034421;28;20270;-66
2022/04/18 02:21:13;;;;;;;4.13;3.57;;;;;;;;;;5035558;28;20569;-64
2022/04/18 02:23:40;;;;;;;8.33;4.67;;;;;;;;;;5035797;28;20213;-61
2022/04/18 02:26:06;;;;;;;5.43;4.13;;;;;;;;;;5034088;28;20187;-63
2022/04/18 02:28:31;;;;;;;6.50;4.13;;;;;;;;;;5035459;28;20286;-66
2022/04/18 02:31:01;;;;;;;7.00;3.90;;;;;;;;;;5035379;28;20254;-64
2022/04/18 02:33:27;;;;;;;4.40;4.00;;;;;;;;;;5035633;28;20743;-65
2022/04/18 02:35:53;;;;;;;7.10;4.10;;;;;;;;;;5035414;28;20282;-65
2022/04/18 02:38:19;;;;;;;4.50;3.43;;;;;;;;;;5035124;28;20179;-64
2022/04/18 02:40:45;;;;;;;3.53;3.20;;;;;;;;;;5035308;28;20186;-66
2022/04/18 02:43:12;;;;;;;5.03;3.53;;;;;;;;;;5034918;28;20190;-66
2022/04/18 02:45:38;;;;;;;5.33;3.10;;;;;;;;;;5035517;28;20167;-66
2022/04/18 02:48:04;;;;;;;5.83;3.23;;;;;;;;;;5033770;28;20272;-66
2022/04/18 02:50:30;;;;;;;4.83;3.07;;;;;;;;;;5033773;28;20594;-64
2022/04/18 02:52:56;;;;;;;4.17;3.10;;;;;;;;;;5035080;28;20189;-66
2022/04/18 02:55:23;;;;;;;4.83;3.47;;;;;;;;;;5035516;28;20231;-64
2022/04/18 02:57:49;;;;;;;5.00;3.43;;;;;;;;;;5035793;28;20583;-65
2022/04/18 03:00:15;;;;;;;4.27;3.50;;;;;;;;;;5034069;28;20175;-64
2022/04/18 03:02:41;;;;;;;4.57;3.07;;;;;;;;;;5035068;28;20217;-65
2022/04/18 03:05:08;;;;;;;4.67;3.43;;;;;;;;;;5033928;28;20201;-65
2022/04/18 03:07:34;;;;;;;4.47;3.20;;;;;;;;;;5033916;28;20281;-66
2022/04/18 03:10:01;;;;;;;6.70;3.30;;;;;;;;;;5035176;28;20191;-65
2022/04/18 03:12:27;;;;;;;5.03;3.10;;;;;;;;;;5034913;28;20187;-66
2022/04/18 03:14:53;;;;;;;3.60;3.30;;;;;;;;;;5034015;28;20199;-65
2022/04/18 03:17:19;;;;;;;4.00;3.43;;;;;;;;;;5033426;28;20191;-66
2022/04/18 03:19:45;;;;;;;6.13;3.10;;;;;;;;;;5033289;28;20239;-66
2022/04/18 03:22:11;;;;;;;3.67;3.07;;;;;;;;;;5034709;28;20258;-65
2022/04/18 03:24:37;;;;;;;4.17;3.40;;;;;;;;;;5033051;28;20577;-66
2022/04/18 03:27:04;;;;;;;3.30;3.00;;;;;;;;;;5034406;28;20202;-66
2022/04/18 03:29:31;;;;;;;3.53;3.23;;;;;;;;;;5034345;28;20180;-66
2022/04/18 03:31:57;;;;;;;4.60;3.17;;;;;;;;;;5034610;28;20171;-66
2022/04/18 03:34:23;;;;;;;4.13;3.00;;;;;;;;;;5034185;28;20294;-65
2022/04/18 03:39:50;;;;;;;5.13;2.97;;;;;;;;;;5034332;28;20174;-66
2022/04/18 03:42:16;;;;;;;3.03;2.73;;;;;;;;;;5034321;28;20738;-66
2022/04/18 03:44:46;;;;;;;3.17;2.70;;;;;;;;;;5033783;28;20276;-66
2022/04/18 03:47:12;;;;;;;5.37;3.47;;;;;;;;;;5034524;28;20250;-66
2022/04/18 03:49:39;;;;;;;4.00;3.13;;;;;;;;;;5034315;28;20190;-65
2022/04/18 03:52:05;;;;;;;4.33;2.90;;;;;;;;;;5032545;28;20194;-66
2022/04/18 03:54:31;;;;;;;4.03;3.20;;;;;;;;;;5033696;28;20257;-66
2022/04/18 03:56:57;;;;;;;5.67;2.97;;;;;;;;;;5034000;28;20179;-67
2022/04/18 03:59:23;;;;;;;10.40;3.40;;;;;;;;;;5033653;28;20172;-66
2022/04/18 04:01:49;;;;;;;3.83;2.60;;;;;;;;;;5033943;28;20178;-66
2022/04/18 04:04:15;;;;;;;4.97;3.13;;;;;;;;;;5033669;28;20220;-66
2022/04/18 04:06:41;;;;;;;3.43;2.67;;;;;;;;;;5033648;28;20686;-65
2022/04/18 04:09:07;;;;;;;4.10;3.13;;;;;;;;;;5032247;28;20249;-65
2022/04/18 04:11:33;;;;;;;5.73;4.53;;;;;;;;;;5033624;28;20183;-66
2022/04/18 04:13:59;;;;;;;5.93;3.97;;;;;;;;;;5032254;28;20202;-65
2022/04/18 04:16:25;;;;;;;6.90;4.97;;;;;;;;;;5032153;28;20202;-65
2022/04/18 04:18:51;;;;;;;7.37;3.83;;;;;;;;;;5032193;28;20185;-66
2022/04/18 04:21:17;;;;;;;6.83;4.30;;;;;;;;;;5033378;28;20179;-66
2022/04/18 04:23:43;;;;;;;4.23;3.30;;;;;;;;;;5033231;28;20627;-64
2022/04/18 04:26:10;;;;;;;5.13;3.93;;;;;;;;;;5032379;28;20301;-65
2022/04/18 04:28:36;;;;;;;5.90;4.50;;;;;;;;;;5033337;28;20225;-66
2022/04/18 04:31:03;;;;;;;8.93;5.00;;;;;;;;;;5033892;28;20211;-65
2022/04/18 04:33:30;;;;;;;4.87;4.17;;;;;;;;;;5033209;28;20725;-65
2022/04/18 04:35:57;;;;;;;6.27;4.40;;;;;;;;;;5033306;28;20195;-66
2022/04/18 04:38:23;;;;;;;6.87;4.87;;;;;;;;;;5031942;28;20175;-66
2022/04/18 04:40:49;;;;;;;8.07;5.40;;;;;;;;;;5033200;28;20201;-66
2022/04/18 04:43:15;;;;;;;9.00;5.33;;;;;;;;;;5031570;28;20723;-65
2022/04/18 04:45:41;;;;;;;5.23;3.60;;;;;;;;;;5033160;28;20214;-65
2022/04/18 04:48:07;;;;;;;3.90;2.90;;;;;;;;;;5031880;28;20658;-66
2022/04/18 04:50:33;;;;;;;5.37;2.90;;;;;;;;;;5031872;28;20187;-66
2022/04/18 04:53:00;;;;;;;3.40;2.67;;;;;;;;;;5033621;28;20186;-64
2022/04/18 04:55:27;;;;;;;4.03;3.13;;;;;;;;;;5033000;28;20202;-65
2022/04/18 04:57:53;;;;;;;4.27;2.90;;;;;;;;;;5032979;28;20171;-65
2022/04/18 05:00:19;;;;;;;3.30;3.00;;;;;;;;;;5033001;28;20233;-66
2022/04/18 05:02:45;;;;;;;4.03;3.13;;;;;;;;;;5033102;28;20179;-65
2022/04/18 05:05:11;;;;;;;6.50;3.30;;;;;;;;;;5031577;28;20678;-65
2022/04/18 05:07:37;;;;;;;4.37;3.10;;;;;;;;;;5031596;28;20233;-66
2022/04/18 05:10:04;;;;;;;3.47;2.63;;;;;;;;;;5032898;28;20187;-65
2022/04/18 05:12:31;;;;;;;3.77;2.63;;;;;;;;;;5033698;28;20538;-66
2022/04/18 05:15:03;;;;;;;3.93;2.97;;;;;;;;;;5032931;28;20195;-65
2022/04/18 05:17:30;;;;;;;5.07;2.80;;;;;;;;;;5032846;28;20180;-65
2022/04/18 05:19:56;;;;;;;3.47;2.60;;;;;;;;;;5033174;28;20206;-66
2022/04/18 05:22:22;;;;;;;4.17;3.20;;;;;;;;;;5032938;28;20549;-65
2022/04/18 05:24:48;;;;;;;4.27;3.20;;;;;;;;;;5032608;28;20219;-66
2022/04/18 05:27:15;;;;;;;5.20;3.47;;;;;;;;;;5032277;28;20183;-65
2022/04/18 05:29:41;;;;;;;5.57;2.90;;;;;;;;;;5032799;28;20171;-65
2022/04/18 05:32:07;;;;;;;4.13;3.20;;;;;;;;;;5032933;28;20237;-65
2022/04/18 05:34:33;;;;;;;8.67;3.40;;;;;;;;;;5031262;28;20579;-65
2022/04/18 05:36:59;;;;;;;6.13;3.57;;;;;;;;;;5034417;28;20262;-66
2022/04/18 05:39:26;;;;;;;5.37;3.27;;;;;;;;;;5036269;28;20245;-65
2022/04/18 05:41:52;;;;;;;5.97;4.50;;;;;;;;;;5036584;28;20562;-65
2022/04/18 05:44:18;;;;;;;10.50;4.63;;;;;;;;;;5036309;28;20277;-64
2022/04/18 05:46:44;;;;;;;6.73;3.43;;;;;;;;;;5035043;28;20175;-64
2022/04/18 05:49:10;;;;;;;12.57;3.97;;;;;;;;;;5036251;28;20685;-64
2022/04/18 05:51:37;;;;;;;6.67;3.60;;;;;;;;;;5034862;28;20241;-64
2022/04/18 05:54:03;;;;;;;4.93;3.00;;;;;;;;;;5035983;28;20191;-64
2022/04/18 05:56:32;;;;;;;9.93;2.83;;;;;;;;;;5034662;28;20238;-64
2022/04/18 05:58:58;;;;;;;3.10;2.80;;;;;;;;;;5035927;28;20172;-64
2022/04/18 06:01:24;;;;;;;10.83;3.13;;;;;;;;;;5036053;28;20183;-64
2022/04/18 06:03:50;;;;;;;3.03;2.73;;;;;;;;;;5051527;22;20230;-64
2022/04/18 06:06:17;;;;;;;5.37;2.87;;;;;;;;;;5036240;28;20316;-64
2022/04/18 06:08:43;;;;;;;3.70;3.17;;;;;;;;;;5035771;28;20294;-64
2022/04/18 06:11:09;;;;;;;4.53;2.80;;;;;;;;;;5036196;28;20237;-64
2022/04/18 06:13:35;;;;;;;3.63;2.97;;;;;;;;;;5035646;28;20243;-64
2022/04/18 06:16:01;;;;;;;5.17;3.00;;;;;;;;;;5034166;28;20206;-64
2022/04/18 06:18:27;;;;;;;3.13;2.70;;;;;;;;;;5034213;28;20186;-65
2022/04/18 06:20:53;;;;;;;5.97;3.50;;;;;;;;;;5035518;28;20175;-64
2022/04/18 06:23:19;;;;;;;4.17;2.90;;;;;;;;;;5035712;28;20206;-64
2022/04/18 06:25:45;;;;;;;6.90;3.20;;;;;;;;;;5035507;28;20238;-65
2022/04/18 06:28:14;;;;;;;2.77;2.50;;;;;;;;;;5035752;28;20183;-64
2022/04/18 06:30:40;;;;;;;3.40;3.07;;;;;;;;;;5035543;28;20179;-65
2022/04/18 06:33:11;;;;;;;3.17;2.63;;;;;;;;;;5036233;28;20183;-64
2022/04/18 06:35:37;;;;;;;3.20;2.70;;;;;;;;;;5037331;28;20201;-65
2022/04/18 06:38:03;;;;;;;3.03;2.73;;;;;;;;;;5037206;28;20554;-64
2022/04/18 06:40:29;;;;;;;4.50;2.80;;;;;;;;;;5037512;28;20205;-64
2022/04/18 06:42:55;;;;;;;3.30;2.67;;;;;;;;;;5034609;28;20179;-64
2022/04/18 06:45:20;;;;;;;3.23;2.93;;;;;;;;;;5035348;28;20179;-65
2022/04/18 06:47:46;;;;;;;3.77;3.00;;;;;;;;;;5034610;28;20182;-64
2022/04/18 06:50:13;;;;;;;3.53;3.23;;;;;;;;;;5035234;28;20183;-65
2022/04/18 06:52:39;;;;;;;5.53;2.80;;;;;;;;;;5035390;28;20207;-65
2022/04/18 06:55:05;;;;;;;4.87;2.70;;;;;;;;;;5035647;28;20285;-65
2022/04/18 06:57:31;;;;;;;3.77;3.00;;;;;;;;;;5035014;28;20234;-65
2022/04/18 06:59:57;;;;;;;4.03;3.00;;;;;;;;;;5035182;28;20175;-69
2022/04/18 07:02:23;;;;;;;10.87;2.63;;;;;;;;;;5033677;28;20179;-66
2022/04/18 07:04:50;;;;;;;6.77;3.00;;;;;;;;;;5034869;28;20215;-65
2022/04/18 07:07:16;;;;;;;3.13;2.60;;;;;;;;;;5035165;28;20207;-65
2022/04/18 07:09:42;;;;;;;4.00;2.90;;;;;;;;;;5033631;28;20209;-65
2022/04/18 07:12:08;;;;;;;4.50;2.60;;;;;;;;;;5035037;28;20266;-66
2022/04/18 07:14:38;;;;;;;3.93;2.83;;;;;;;;;;5033139;28;20302;-65
2022/04/18 07:17:04;;;;;;;4.43;2.67;;;;;;;;;;5035068;28;20198;-64
2022/04/18 07:19:31;;;;;;;2.83;2.50;;;;;;;;;;5034648;28;20232;-65
2022/04/18 07:21:57;;;;;;;3.73;3.00;;;;;;;;;;5034636;28;20175;-65
2022/04/18 07:24:23;;;;;;;5.13;4.00;;;;;;;;;;5034530;28;20206;-65
2022/04/18 07:26:49;;;;;;;3.47;2.80;;;;;;;;;;5034589;28;20178;-65
2022/04/18 07:29:15;;;;;;;3.97;2.70;;;;;;;;;;5033342;28;20179;-65
2022/04/18 07:31:42;;;;;;;5.57;3.50;;;;;;;;;;5034646;28;20179;-65
2022/04/18 07:34:07;;;;;;;5.47;3.57;;;;;;;;;;5034442;28;20202;-65
2022/04/18 07:36:33;;;;;;;5.90;4.03;;;;;;;;;;5033069;28;20203;-64
2022/04/18 07:39:00;;;;;;;7.33;5.00;;;;;;;;;;5034753;28;20199;-65
2022/04/18 07:41:27;;;;;;;5.07;3.13;;;;;;;;;;5034376;28;20175;-65
2022/04/18 07:43:54;;;;;;;6.57;3.43;;;;;;;;;;5034189;28;20233;-65
2022/04/18 07:46:20;;;;;;;6.13;4.20;;;;;;;;;;5033220;28;20193;-65
2022/04/18 07:48:48;;;;;;;4.33;3.70;;;;;;;;;;5034126;28;20597;-65
2022/04/18 07:51:34;;;;;;;4.70;3.73;;;;;;;;;;5033970;28;20208;-65
2022/04/18 07:54:02;;;;;;;5.23;4.03;;;;;;;;;;5034365;28;20566;-64
2022/04/18 07:56:28;;;;;;;8.53;4.27;;;;;;;;;;5032765;28;20203;-65
2022/04/18 07:58:55;;;;;;;4.93;3.63;;;;;;;;;;5034043;28;20187;-65
2022/04/18 08:01:21;;;;;;;6.30;3.70;;;;;;;;;;5032493;28;20313;-65
2022/04/18 08:03:48;;;;;;;5.03;3.63;;;;;;;;;;5033820;28;20263;-64
2022/04/18 08:06:14;;;;;;;6.80;3.93;;;;;;;;;;5033904;28;20175;-65
2022/04/18 08:08:40;;;;;;;6.03;4.00;;;;;;;;;;5033682;28;20175;-64
2022/04/18 08:11:11;;;;;;;6.40;3.67;;;;;;;;;;5033674;28;20179;-64
2022/04/18 08:13:37;;;;;;;7.43;4.00;;;;;;;;;;5032603;28;20199;-65
2022/04/18 08:16:03;;;;;;;6.53;5.03;;;;;;;;;;5034004;28;20679;-65
2022/04/18 08:18:30;;;;;;;7.73;4.40;;;;;;;;;;5034079;28;20224;-66
2022/04/18 08:20:56;;;;;;;9.50;4.23;;;;;;;;;;5034240;28;20209;-65
2022/04/18 08:23:22;;;;;;;7.90;3.87;;;;;;;;;;5033621;28;20195;-65
2022/04/18 08:25:49;;;;;;;6.00;3.70;;;;;;;;;;5032291;28;20179;-65
2022/04/18 08:28:14;;;;;;;6.17;3.70;;;;;;;;;;5032313;28;20182;-65
2022/04/18 08:30:41;;;;;;;13.43;4.40;;;;;;;;;;5032235;28;20716;-65
2022/04/18 08:33:07;;;;;;;7.77;4.50;;;;;;;;;;5031907;28;20179;-65
2022/04/18 08:35:33;;;;;;;12.80;5.03;;;;;;;;;;5033121;28;20686;-65
2022/04/18 08:38:02;;;;;;;7.47;4.40;;;;;;;;;;5032049;28;20183;-65
2022/04/18 08:40:28;;;;;;;6.93;4.63;;;;;;;;;;5033701;28;20484;-65
2022/04/18 08:42:55;;;;;;;12.10;5.17;;;;;;;;;;5033866;28;20619;-65
2022/04/18 08:45:23;;;;;;;7.90;5.03;;;;;;;;;;5033332;28;20176;-65
2022/04/18 08:53:24;;;;;;;7.60;4.50;;;;;;;;;;5033654;28;20209;-64
2022/04/18 08:55:50;;;;;;;8.20;3.73;;;;;;;;;;5033509;28;20214;-65
2022/04/18 08:58:16;;;;;;;9.90;4.77;;;;;;;;;;5033341;28;20175;-65
2022/04/18 09:00:42;;;;;;;7.67;4.17;;;;;;;;;;5031953;28;20582;-64
2022/04/18 09:03:08;;;;;;;6.13;4.07;;;;;;;;;;5032676;28;20229;-64
2022/04/18 09:05:36;;;;;;;7.87;4.20;;;;;;;;;;5031957;28;20191;-64
2022/04/18 09:08:03;;;;;;;5.60;3.83;;;;;;;;;;5033055;28;20179;-64
2022/04/18 09:10:29;;;;;;;5.23;3.73;;;;;;;;;;5033176;28;20541;-64
2022/04/18 09:13:14;;;;;;;8.50;4.90;;;;;;;;;;5036122;28;20179;-64
2022/04/18 09:15:41;;;;;;;7.47;5.17;;;;;;;;;;5036812;28;20274;-64
2022/04/18 09:18:17;;;;;;;7.73;4.67;;;;;;;;;;5037002;28;20171;-64
2022/04/18 09:20:48;;;;;;;11.10;6.63;;;;;;;;;;5036904;28;20220;-64
2022/04/18 09:23:20;;;;;;;9.90;6.00;;;;;;;;;;5036605;28;20195;-64
2022/04/18 09:25:47;;;;;;;10.77;5.87;;;;;;;;;;5037009;28;20206;-64
2022/04/18 09:28:14;;;;;;;9.47;4.37;;;;;;;;;;5035417;28;20278;-65
2022/04/18 09:30:42;;;;;;;6.27;4.47;;;;;;;;;;5036670;28;20183;-64
2022/04/18 09:33:08;;;;;;;7.00;4.60;;;;;;;;;;5036896;28;20269;-64
2022/04/18 09:35:35;;;;;;;5.90;4.23;;;;;;;;;;5036450;28;20199;-64
2022/04/18 09:38:04;;;;;;;6.03;4.20;;;;;;;;;;5037154;28;20230;-64
2022/04/18 09:40:34;;;;;;;8.83;4.87;;;;;;;;;;5036823;28;20182;-64
2022/04/18 09:43:00;;;;;;;9.33;3.90;;;;;;;;;;5036397;28;20191;-64
2022/04/18 09:45:26;;;;;;;6.87;3.80;;;;;;;;;;5035822;28;20179;-64
2022/04/18 09:47:56;;;;;;;7.80;4.07;;;;;;;;;;5034823;28;20182;-64
2022/04/18 09:53:08;;;;;;;3.57;2.83;;;;;;;;;;5036593;28;20213;-65
2022/04/18 09:55:34;;;;;;;5.03;3.23;;;;;;;;;;5035187;28;20221;-65
2022/04/18 09:58:04;;;;;;;6.87;3.10;;;;;;;;;;5034953;28;20183;-65
2022/04/18 10:00:30;;;;;;;3.20;2.60;;;;;;;;;;5036028;28;20213;-64
2022/04/18 10:02:57;;;;;;;4.33;2.87;;;;;;;;;;5036015;28;20171;-64
2022/04/18 10:05:24;;;;;;;3.63;2.50;;;;;;;;;;5035918;28;20201;-65
2022/04/18 10:07:50;;;;;;;4.50;2.70;;;;;;;;;;5036459;28;20180;-65
2022/04/18 10:10:17;;;;;;;4.03;2.70;;;;;;;;;;5036496;28;20588;-64
2022/04/18 10:12:43;;;;;;;3.30;2.90;;;;;;;;;;5034559;28;20223;-64
2022/04/18 10:15:09;;;;;;;3.30;3.00;;;;;;;;;;5035918;28;20231;-65
2022/04/18 10:17:36;;;;;;;3.00;2.70;;;;;;;;;;5036080;28;20179;-65
2022/04/18 10:20:03;;;;;;;5.40;3.13;;;;;;;;;;5036061;28;20266;-64
2022/04/18 10:22:38;;;;;;;3.43;2.90;;;;;;;;;;5035675;28;20175;-64
2022/04/18 10:25:17;;;;;;;7.20;2.67;;;;;;;;;;5034482;28;20202;-65
2022/04/18 10:28:01;;;;;;;5.67;3.27;;;;;;;;;;5035656;28;20556;-65
2022/04/18 10:30:30;;;;;;;4.53;3.20;;;;;;;;;;5034332;28;20190;-65
2022/04/18 10:32:56;;;;;;;3.50;2.80;;;;;;;;;;5035616;28;20653;-64
2022/04/18 10:35:23;;;;;;;4.63;3.27;;;;;;;;;;5035333;28;20333;-64
2022/04/18 10:37:54;;;;;;;3.70;2.67;;;;;;;;;;5034026;28;20183;-65
2022/04/18 10:40:20;;;;;;;5.70;3.10;;;;;;;;;;5035643;28;20167;-65
2022/04/18 10:42:46;;;;;;;3.57;2.60;;;;;;;;;;5035078;28;20175;-65
2022/04/18 10:45:19;;;;;;;4.20;3.33;;;;;;;;;;5035335;28;20258;-64
2022/04/18 10:48:04;;;;;;;5.13;3.80;;;;;;;;;;5035525;28;20251;-64
2022/04/18 10:50:33;;;;;;;5.47;3.20;;;;;;;;;;5035139;28;20183;-64
2022/04/18 10:53:08;;;;;;;4.30;3.67;;;;;;;;;;5035206;28;20199;-64
2022/04/18 10:55:33;;;;;;;5.40;2.87;;;;;;;;;;5033695;28;20559;-64
2022/04/18 10:58:29;;;;;;;3.70;3.20;;;;;;;;;;5035252;28;20226;-65
2022/04/18 11:00:57;;;;;;;4.73;3.57;;;;;;;;;;5016840;28;20191;-65
2022/04/18 11:03:39;;;;;;;4.10;2.90;;;;;;;;;;5034644;28;20215;-65
2022/04/18 11:06:08;;;;;;;4.07;3.30;;;;;;;;;;5034974;28;20155;-65
2022/04/18 11:08:36;;;;;;;3.77;2.73;;;;;;;;;;5034850;28;20187;-64
2022/04/18 11:11:16;;;;;;;4.60;2.93;;;;;;;;;;5033856;28;20630;-64
2022/04/18 11:13:48;;;;;;;4.17;3.60;;;;;;;;;;5033527;28;20206;-64
2022/04/18 11:16:23;;;;;;;4.40;3.30;;;;;;;;;;5033286;28;20627;-65
2022/04/18 11:19:07;;;;;;;5.80;3.50;;;;;;;;;;5035171;28;20175;-65
2022/04/18 11:21:54;;;;;;;4.23;3.00;;;;;;;;;;5033326;28;20272;-65
2022/04/18 11:24:39;;;;;;;3.20;2.90;;;;;;;;;;5033237;28;20585;-64
2022/04/18 11:27:08;;;;;;;4.00;3.00;;;;;;;;;;5034481;28;20179;-64
2022/04/18 11:29:34;;;;;;;4.23;2.73;;;;;;;;;;5033279;28;20183;-64
2022/04/18 11:32:00;;;;;;;3.63;3.03;;;;;;;;;;5032987;28;20690;-65
2022/04/18 11:34:27;;;;;;;4.10;3.17;;;;;;;;;;5033614;28;20667;-64
2022/04/18 11:36:57;;;;;;;2.63;2.37;;;;;;;;;;5034377;28;20246;-65
2022/04/18 11:39:23;;;;;;;3.03;2.63;;;;;;;;;;5034182;28;20182;-64
2022/04/18 11:41:49;;;;;;;3.43;2.90;;;;;;;;;;5034758;28;20539;-65
2022/04/18 11:44:19;;;;;;;6.73;3.20;;;;;;;;;;5034167;28;20629;-65
2022/04/18 11:46:45;;;;;;;2.90;2.63;;;;;;;;;;5034393;28;20179;-64
2022/04/18 11:49:12;;;;;;;3.10;2.80;;;;;;;;;;5032737;28;20559;-64
2022/04/18 11:51:41;;;;;;;3.43;2.90;;;;;;;;;;5034101;28;20179;-64
2022/04/18 11:54:07;;;;;;;3.00;2.50;;;;;;;;;;5033896;28;20206;-65
2022/04/18 11:56:33;;;;;;;3.40;2.50;;;;;;;;;;5033880;28;20306;-65
2022/04/18 11:59:05;;;;;;;2.73;2.53;;;;;;;;;;5034007;28;20210;-64
2022/04/18 12:06:49;;;;;;;3.60;2.87;;;;;;;;;;5015251;28;20239;-64
2022/04/18 12:09:16;;;;;;;4.63;3.00;;;;;;;;;;5013604;28;20178;-64
2022/04/18 12:11:42;;;;;;;2.53;2.30;;;;;;;;;;5013032;28;20266;-64
2022/04/18 12:14:08;;;;;;;2.70;2.50;;;;;;;;;;5014187;28;20179;-64
2022/04/18 12:16:35;;;;;;;2.60;2.40;;;;;;;;;;5015584;28;20210;-64
2022/04/18 12:19:02;;;;;;;3.20;2.90;;;;;;;;;;5015947;28;20175;-63
2022/04/18 12:21:28;;;;;;;5.30;2.57;;;;;;;;;;5013854;28;20254;-64
2022/04/18 12:23:58;;;;;;;3.90;2.70;;;;;;;;;;5014548;28;20648;-64
2022/04/18 12:26:26;;;;;;;2.93;2.53;;;;;;;;;;5014142;28;20265;-64
2022/04/18 12:28:57;;;;;;;3.17;2.60;;;;;;;;;;5013895;28;20175;-64
2022/04/18 12:31:23;;;;;;;4.37;3.27;;;;;;;;;;5014574;28;20532;-64
2022/04/18 12:33:50;;;;;;;3.40;2.67;;;;;;;;;;5012401;28;20187;-64
2022/04/18 12:36:23;;;;;;;4.87;2.90;;;;;;;;;;5013858;28;20214;-66
2022/04/18 12:38:49;;;;;;;5.43;2.57;;;;;;;;;;5013844;28;20212;-63
2022/04/18 12:41:15;;;;;;;3.70;2.80;;;;;;;;;;5012725;28;20723;-66
2022/04/18 12:43:41;;;;;;;2.80;2.60;;;;;;;;;;5014195;28;20549;-68
2022/04/18 12:46:09;;;;;;;3.90;2.73;;;;;;;;;;5013886;28;20267;-65
2022/04/18 12:48:35;;;;;;;4.87;2.60;;;;;;;;;;5017780;28;20179;-65
2022/04/18 12:51:08;;;;;;;5.37;3.40;;;;;;;;;;5016519;28;20183;-65
2022/04/18 12:53:44;;;;;;;6.10;3.03;;;;;;;;;;5017633;28;20187;-65
2022/04/18 12:56:11;;;;;;;3.70;2.50;;;;;;;;;;5016091;28;20215;-65
2022/04/18 12:58:41;;;;;;;4.63;4.23;;;;;;;;;;5017990;28;20180;-64
2022/04/18 13:01:07;;;;;;;3.37;2.90;;;;;;;;;;5017562;28;20186;-65
2022/04/18 13:03:43;;;;;;;4.63;2.80;;;;;;;;;;5018125;28;20254;-65
2022/04/18 13:06:10;;;;;;;2.87;2.57;;;;;;;;;;5017259;28;20224;-65
2022/04/18 13:08:40;;;;;;;4.43;3.93;;;;;;;;;;5016143;28;20188;-64
2022/04/18 13:11:06;;;;;;;6.03;4.90;;;;;;;;;;5016137;28;20202;-65
2022/04/18 13:13:32;;;;;;;3.20;2.70;;;;;;;;;;5017370;28;20180;-65
2022/04/18 13:15:58;;;;;;;3.37;2.60;;;;;;;;;;5017550;28;20204;-64
2022/04/18 13:18:26;;;;;;;5.20;2.50;;;;;;;;;;5017342;28;20239;-65
2022/04/18 13:20:52;;;;;;;3.17;2.50;;;;;;;;;;5015975;28;20191;-65
2022/04/18 13:23:18;;;;;;;3.53;3.03;;;;;;;;;;5016135;28;20179;-63
2022/04/18 13:25:47;;;;;;;3.67;2.80;;;;;;;;;;5017410;28;20203;-66
2022/04/18 13:28:15;;;;;;;4.00;2.77;;;;;;;;;;5016948;28;20184;-66
2022/04/18 13:30:41;;;;;;;4.00;2.77;;;;;;;;;;5017162;28;20593;-66
2022/04/18 13:33:08;;;;;;;2.70;2.50;;;;;;;;;;5016770;28;20179;-66
2022/04/18 13:38:22;;;;;;;4.90;2.90;;;;;;;;;;5017268;28;20250;-65
2022/04/18 13:40:49;;;;;;;4.50;2.80;;;;;;;;;;5016922;28;20172;-65
2022/04/18 13:43:15;;;;;;;3.50;2.70;;;;;;;;;;5016584;28;20191;-66
2022/04/18 13:45:41;;;;;;;3.00;2.70;;;;;;;;;;5015464;28;20624;-64
2022/04/18 13:48:07;;;;;;;2.63;2.43;;;;;;;;;;5016822;28;20179;-65
2022/04/18 13:50:33;;;;;;;4.07;2.67;;;;;;;;;;5015309;28;20183;-65
2022/04/18 13:52:59;;;;;;;2.80;2.60;;;;;;;;;;5015224;28;20187;-64
2022/04/18 13:55:25;;;;;;;2.57;2.37;;;;;;;;;;5017015;28;20262;-64
2022/04/18 13:57:51;;;;;;;2.90;2.50;;;;;;;;;;5016123;28;20632;-64
2022/04/18 14:00:17;;;;;;;2.97;2.63;;;;;;;;;;5016297;28;20179;-64
2022/04/18 14:02:43;;;;;;;4.13;3.07;;;;;;;;;;5015142;28;20203;-65
2022/04/18 14:05:09;;;;;;;3.40;3.10;;;;;;;;;;5016157;28;20694;-65
2022/04/18 14:07:35;;;;;;;4.20;2.80;;;;;;;;;;5016492;28;20187;-65
2022/04/18 14:10:01;;;;;;;3.20;2.90;;;;;;;;;;5016497;28;20187;-64
2022/04/18 14:12:27;;;;;;;2.97;2.77;;;;;;;;;;5016187;28;20199;-64
2022/04/18 14:20:23;;;;;;;3.47;3.17;;;;;;;;;;5016300;28;20218;-64
2022/04/18 14:22:50;;;;;;;2.80;2.60;;;;;;;;;;5014815;28;20176;-65
2022/04/18 14:25:17;;;;;;;4.97;3.20;;;;;;;;;;5014713;28;20230;-65
2022/04/18 14:27:43;;;;;;;3.87;2.97;;;;;;;;;;5016423;28;20183;-66
2022/04/18 14:30:09;;;;;;;3.87;3.37;;;;;;;;;;5015923;28;20606;-65
2022/04/18 14:32:35;;;;;;;4.30;3.40;;;;;;;;;;5016391;28;20184;-65
2022/04/18 14:35:02;;;;;;;3.47;3.17;;;;;;;;;;5014590;28;20218;-65
2022/04/18 14:37:28;;;;;;;4.17;3.73;;;;;;;;;;5015693;28;20187;-65
2022/04/18 14:39:54;;;;;;;4.33;3.30;;;;;;;;;;5015778;28;20190;-65
2022/04/18 14:42:24;;;;;;;5.17;3.47;;;;;;;;;;5015576;28;20553;-64
2022/04/18 14:44:53;;;;;;;5.70;3.40;;;;;;;;;;5015374;28;20258;-64
2022/04/18 14:47:19;;;;;;;3.50;3.20;;;;;;;;;;5015440;28;20180;-67
2022/04/18 14:49:46;;;;;;;3.90;3.50;;;;;;;;;;5015562;28;20180;-65
2022/04/18 14:52:12;;;;;;;3.87;3.40;;;;;;;;;;5015622;28;20246;-64
2022/04/18 14:54:38;;;;;;;4.90;4.10;;;;;;;;;;5014191;28;20196;-64
2022/04/18 14:57:04;;;;;;;4.10;3.60;;;;;;;;;;5015602;28;20233;-66
2022/04/18 14:59:30;;;;;;;4.40;4.00;;;;;;;;;;5015337;28;20202;-66
2022/04/18 15:01:57;;;;;;;4.17;3.80;;;;;;;;;;5015109;28;20258;-64
2022/04/18 15:04:23;;;;;;;4.40;4.00;;;;;;;;;;5015360;28;20190;-66
2022/04/18 15:06:49;;;;;;;7.47;3.93;;;;;;;;;;5015039;28;20183;-64
2022/04/18 15:09:15;;;;;;;4.00;3.60;;;;;;;;;;5014190;28;20266;-64
2022/04/18 15:11:45;;;;;;;4.57;4.03;;;;;;;;;;5013758;28;20191;-64
2022/04/18 15:14:11;;;;;;;4.73;4.03;;;;;;;;;;5013798;28;20533;-63